createdAt,value
2018-05-24T00:02:05.799Z,8.67
2018-05-24T00:04:34.190Z,7.47
2018-05-24T00:07:02.618Z,9.20
2018-05-24T00:09:31.050Z,9.60
2018-05-24T00:11:59.470Z,9.10
2018-05-24T00:14:27.864Z,10.13
2018-05-24T00:16:56.250Z,10.80
2018-05-24T00:19:24.702Z,10.07
2018-05-24T00:21:53.143Z,11.47
2018-05-24T00:24:21.552Z,11.63
2018-05-24T00:26:49.996Z,10.67
2018-05-24T00:29:18.411Z,12.27
2018-05-24T00:31:46.787Z,13.03
2018-05-24T00:34:15.240Z,12.90
2018-05-24T00:36:43.636Z,11.97
2018-05-24T00:39:12.232Z,12.63
2018-05-24T00:41:40.620Z,12.27
2018-05-24T00:44:09.082Z,12.87
2018-05-24T00:46:37.501Z,13.73
2018-05-24T00:49:05.953Z,13.80
2018-05-24T00:51:34.326Z,13.30
2018-05-24T00:54:02.713Z,14.13
2018-05-24T00:56:31.163Z,13.80
2018-05-24T00:58:59.526Z,14.33
2018-05-24T01:01:27.895Z,14.37
2018-05-24T01:03:56.336Z,13.00
2018-05-24T01:06:24.739Z,13.93
2018-05-24T01:08:53.216Z,13.73
2018-05-24T01:11:21.607Z,13.87
2018-05-24T01:13:50.097Z,13.63
2018-05-24T01:16:18.512Z,13.10
2018-05-24T01:18:46.902Z,14.23
2018-05-24T01:21:15.330Z,13.33
2018-05-24T01:23:43.782Z,13.73
2018-05-24T01:26:12.189Z,14.20
2018-05-24T01:28:40.623Z,13.60
2018-05-24T01:31:09.058Z,13.67
2018-05-24T01:33:37.503Z,13.50
2018-05-24T01:36:05.916Z,13.63
2018-05-24T01:38:34.322Z,14.97
2018-05-24T01:41:02.815Z,14.33
2018-05-24T01:43:31.257Z,15.43
2018-05-24T01:45:59.684Z,14.90
2018-05-24T01:48:28.142Z,14.57
2018-05-24T01:50:56.607Z,15.23
2018-05-24T01:53:25.052Z,13.33
2018-05-24T01:55:53.480Z,15.13
2018-05-24T01:58:21.894Z,14.90
2018-05-24T02:00:50.299Z,14.13
2018-05-24T02:03:18.690Z,14.27
2018-05-24T02:05:47.078Z,15.20
2018-05-24T02:08:15.538Z,14.67
2018-05-24T02:10:43.898Z,13.60
2018-05-24T02:13:12.374Z,14.13
2018-05-24T02:15:40.767Z,14.97
2018-05-24T02:18:09.155Z,13.93
2018-05-24T02:20:37.592Z,15.63
2018-05-24T02:23:06.050Z,15.93
2018-05-24T02:25:34.447Z,15.13
2018-05-24T02:28:02.832Z,14.30
2018-05-24T02:30:31.303Z,16.57
2018-05-24T02:32:59.734Z,16.00
2018-05-24T02:35:28.133Z,15.17
2018-05-24T02:37:56.563Z,15.97
2018-05-24T02:40:25.084Z,16.77
2018-05-24T02:42:53.495Z,17.47
2018-05-24T02:45:21.928Z,16.57
2018-05-24T02:47:50.331Z,16.43
2018-05-24T02:50:18.705Z,16.53
2018-05-24T02:52:47.147Z,14.50
2018-05-24T02:55:15.539Z,15.97
2018-05-24T02:57:43.973Z,15.07
2018-05-24T03:00:12.355Z,17.30
2018-05-24T03:02:40.801Z,15.53
2018-05-24T03:05:09.184Z,16.67
2018-05-24T03:07:38.318Z,15.83
2018-05-24T03:10:06.759Z,17.03
2018-05-24T03:12:35.272Z,16.53
2018-05-24T03:15:03.759Z,16.90
2018-05-24T03:17:32.183Z,16.73
2018-05-24T03:20:00.794Z,16.63
2018-05-24T03:22:29.241Z,15.53
2018-05-24T03:24:57.649Z,16.93
2018-05-24T03:27:26.091Z,16.23
2018-05-24T03:29:54.487Z,15.17
2018-05-24T03:32:22.897Z,14.83
2018-05-24T03:34:51.305Z,15.90
2018-05-24T03:37:19.740Z,15.93
2018-05-24T03:39:48.119Z,15.43
2018-05-24T03:42:16.531Z,15.90
2018-05-24T03:44:44.912Z,14.97
2018-05-24T03:47:13.343Z,14.83
2018-05-24T03:49:41.728Z,17.17
2018-05-24T03:52:10.154Z,15.07
2018-05-24T03:54:38.620Z,14.60
2018-05-24T03:57:07.030Z,14.20
2018-05-24T04:02:56.417Z,13.47
2018-05-24T04:05:24.842Z,11.90
2018-05-24T04:07:53.263Z,13.27
2018-05-24T04:10:21.750Z,12.17
2018-05-24T04:12:50.159Z,12.40
2018-05-24T04:15:18.603Z,14.00
2018-05-24T04:17:47.018Z,13.43
2018-05-24T04:20:15.431Z,12.93
2018-05-24T04:22:43.879Z,12.47
2018-05-24T04:25:12.324Z,12.00
2018-05-24T04:27:40.724Z,12.20
2018-05-24T04:30:09.148Z,13.53
2018-05-24T04:32:37.592Z,13.63
2018-05-24T04:35:05.994Z,12.43
2018-05-24T04:37:34.396Z,12.97
2018-05-24T04:40:02.841Z,12.00
2018-05-24T04:42:31.270Z,12.37
2018-05-24T04:44:59.653Z,12.80
2018-05-24T04:47:28.090Z,11.93
2018-05-24T04:49:56.528Z,11.33
2018-05-24T04:52:24.944Z,12.33
2018-05-24T04:54:53.315Z,12.80
2018-05-24T04:57:21.806Z,11.77
2018-05-24T04:59:50.234Z,13.07
2018-05-24T05:02:18.700Z,11.60
2018-05-24T05:04:47.109Z,12.17
2018-05-24T05:07:15.544Z,10.83
2018-05-24T05:09:43.993Z,20.60
2018-05-24T05:12:12.383Z,11.77
2018-05-24T05:14:40.802Z,12.23
2018-05-24T05:17:09.254Z,12.57
2018-05-24T05:19:37.714Z,12.27
2018-05-24T05:22:06.135Z,11.60
2018-05-24T05:24:34.532Z,13.57
2018-05-24T05:27:02.971Z,13.27
2018-05-24T05:29:31.339Z,12.77
2018-05-24T05:31:59.786Z,12.10
2018-05-24T05:34:28.190Z,12.30
2018-05-24T05:36:56.643Z,13.03
2018-05-24T05:39:25.041Z,12.20
2018-05-24T05:41:53.523Z,12.27
2018-05-24T05:44:21.973Z,11.03
2018-05-24T05:46:50.445Z,11.73
2018-05-24T05:49:18.825Z,12.80
2018-05-24T05:51:47.217Z,13.40
2018-05-24T05:54:15.666Z,12.63
2018-05-24T05:56:44.180Z,12.87
2018-05-24T05:59:12.590Z,12.37
2018-05-24T06:01:41.102Z,12.10
2018-05-24T06:04:09.523Z,12.63
2018-05-24T06:06:37.971Z,11.80
2018-05-24T06:09:08.393Z,12.33
2018-05-24T06:11:36.795Z,11.50
2018-05-24T06:14:05.244Z,11.17
2018-05-24T06:16:33.627Z,10.87
2018-05-24T06:19:02.113Z,12.50
2018-05-24T06:21:30.555Z,12.43
2018-05-24T06:23:58.981Z,11.87
2018-05-24T06:26:27.519Z,14.47
2018-05-24T06:28:55.936Z,16.67
2018-05-24T06:31:24.339Z,12.63
2018-05-24T06:33:52.817Z,14.47
2018-05-24T06:36:21.230Z,14.47
2018-05-24T06:38:49.614Z,14.70
2018-05-24T06:41:18.045Z,12.83
2018-05-24T06:43:46.484Z,13.73
2018-05-24T06:46:14.939Z,13.17
2018-05-24T06:48:43.463Z,13.27
2018-05-24T06:51:11.838Z,12.10
2018-05-24T06:53:40.283Z,12.30
2018-05-24T06:56:08.775Z,12.47
2018-05-24T06:58:37.222Z,11.03
2018-05-24T07:01:05.685Z,11.60
2018-05-24T07:03:34.303Z,11.73
2018-05-24T07:06:02.823Z,11.27
2018-05-24T07:08:31.198Z,12.57
2018-05-24T07:10:59.620Z,13.17
2018-05-24T07:13:28.059Z,11.80
2018-05-24T07:15:56.482Z,12.87
2018-05-24T07:18:24.868Z,12.63
2018-05-24T07:20:53.443Z,13.50
2018-05-24T07:23:21.840Z,14.00
2018-05-24T07:25:50.283Z,13.17
2018-05-24T07:28:18.692Z,15.27
2018-05-24T07:30:47.179Z,14.68
2018-05-24T07:33:15.577Z,12.70
2018-05-24T07:35:44.041Z,12.47
2018-05-24T07:38:12.411Z,11.27
2018-05-24T07:40:40.815Z,11.52
2018-05-24T07:43:09.247Z,11.48
2018-05-24T07:45:37.651Z,11.20
2018-05-24T07:48:06.035Z,10.13
2018-05-24T07:50:34.483Z,11.00
2018-05-24T07:53:02.906Z,11.85
2018-05-24T07:55:31.349Z,11.05
2018-05-24T07:57:59.850Z,12.18
2018-05-24T08:00:28.219Z,10.75
2018-05-24T08:02:56.624Z,10.70
2018-05-24T08:05:25.074Z,10.50
2018-05-24T08:07:53.527Z,10.48
2018-05-24T08:10:21.975Z,12.23
2018-05-24T08:12:50.906Z,11.70
2018-05-24T08:15:19.470Z,10.27
2018-05-24T08:17:47.849Z,9.48
2018-05-24T08:20:16.273Z,10.10
2018-05-24T08:22:44.651Z,8.63
2018-05-24T08:25:13.063Z,8.63
2018-05-24T08:27:41.443Z,10.00
2018-05-24T08:30:09.878Z,8.45
2018-05-24T08:32:38.403Z,9.05
2018-05-24T08:35:06.826Z,8.68
2018-05-24T08:37:35.236Z,9.52
2018-05-24T08:40:03.651Z,9.35
2018-05-24T08:42:32.046Z,10.00
2018-05-24T08:45:00.491Z,8.30
2018-05-24T08:47:29.039Z,9.23
2018-05-24T08:49:57.418Z,7.18
2018-05-24T08:52:25.877Z,8.95
2018-05-24T08:54:54.265Z,7.93
2018-05-24T08:57:22.700Z,7.22
2018-05-24T08:59:51.092Z,7.55
2018-05-24T09:02:19.514Z,7.80
2018-05-24T09:04:47.942Z,6.93
2018-05-24T09:07:16.356Z,7.50
2018-05-24T09:09:44.750Z,8.50
2018-05-24T09:12:13.172Z,8.48
2018-05-24T09:14:41.541Z,8.73
2018-05-24T09:17:09.931Z,8.10
2018-05-24T09:19:38.391Z,7.75
2018-05-24T09:22:06.802Z,8.35
2018-05-24T09:24:35.183Z,9.10
2018-05-24T09:27:03.633Z,7.87
2018-05-24T09:29:32.087Z,10.13
2018-05-24T09:32:00.495Z,8.45
2018-05-24T09:34:28.915Z,12.30
2018-05-24T09:36:57.391Z,9.18
2018-05-24T09:39:25.818Z,7.87
2018-05-24T09:41:54.895Z,8.93
2018-05-24T09:44:23.592Z,7.62
2018-05-24T09:46:51.966Z,7.62
2018-05-24T09:49:20.372Z,8.73
2018-05-24T09:51:48.803Z,7.72
2018-05-24T09:54:17.217Z,8.15
2018-05-24T09:56:45.635Z,7.82
2018-05-24T09:59:14.063Z,10.20
2018-05-24T10:01:42.487Z,9.05
2018-05-24T10:04:10.861Z,7.82
2018-05-24T10:06:39.270Z,7.55
2018-05-24T10:09:07.711Z,6.97
2018-05-24T10:11:36.180Z,7.07
2018-05-24T10:14:04.701Z,7.15
2018-05-24T10:16:33.201Z,7.68
2018-05-24T10:19:01.565Z,6.45
2018-05-24T10:21:29.926Z,7.07
2018-05-24T10:23:58.343Z,6.68
2018-05-24T10:26:26.790Z,7.05
2018-05-24T10:28:55.143Z,6.22
2018-05-24T10:31:23.516Z,6.75
2018-05-24T10:33:51.991Z,7.05
2018-05-24T10:36:20.462Z,7.68
2018-05-24T10:38:48.854Z,6.85
2018-05-24T10:41:17.251Z,7.15
2018-05-24T10:43:45.651Z,7.18
2018-05-24T10:46:14.079Z,6.68
2018-05-24T10:48:42.463Z,7.32
2018-05-24T10:51:10.954Z,7.50
2018-05-24T10:53:39.314Z,5.82
2018-05-24T10:56:07.719Z,7.10
2018-05-24T10:58:36.146Z,7.05
2018-05-24T11:01:04.538Z,6.85
2018-05-24T11:03:32.946Z,6.30
2018-05-24T11:06:01.452Z,6.43
2018-05-24T11:08:29.963Z,6.82
2018-05-24T11:10:58.359Z,7.00
2018-05-24T11:13:26.787Z,6.62
2018-05-24T11:15:55.203Z,7.15
2018-05-24T11:18:23.631Z,8.00
2018-05-24T11:20:52.056Z,6.97
2018-05-24T11:23:20.499Z,7.18
2018-05-24T11:25:48.915Z,7.20
2018-05-24T11:28:17.283Z,7.62
2018-05-24T11:30:45.770Z,6.87
2018-05-24T11:33:14.149Z,7.57
2018-05-24T11:35:42.528Z,7.23
2018-05-24T11:38:10.956Z,7.13
2018-05-24T11:40:39.381Z,7.13
2018-05-24T11:43:07.808Z,6.47
2018-05-24T11:45:36.251Z,6.53
2018-05-24T11:48:04.716Z,6.87
2018-05-24T11:50:33.195Z,6.90
2018-05-24T11:53:01.615Z,6.63
2018-05-24T11:55:30.031Z,7.10
2018-05-24T11:57:58.413Z,7.30
2018-05-24T12:00:26.823Z,7.30
2018-05-24T12:02:55.198Z,6.40
2018-05-24T12:05:23.605Z,5.37
2018-05-24T12:07:52.075Z,5.33
2018-05-24T12:10:20.490Z,6.13
2018-05-24T12:12:48.911Z,5.90
2018-05-24T12:15:17.343Z,6.83
2018-05-24T12:17:45.742Z,5.80
2018-05-24T12:20:14.126Z,6.80
2018-05-24T12:22:42.586Z,6.90
2018-05-24T12:25:11.043Z,6.30
2018-05-24T12:27:39.447Z,6.10
2018-05-24T12:30:07.896Z,6.43
2018-05-24T12:32:36.307Z,6.67
2018-05-24T12:35:04.697Z,6.03
2018-05-24T12:37:33.152Z,6.50
2018-05-24T12:40:01.611Z,6.77
2018-05-24T12:42:30.219Z,7.43
2018-05-24T12:44:58.655Z,6.80
2018-05-24T12:47:27.540Z,8.13
2018-05-24T12:49:55.953Z,7.20
2018-05-24T12:52:24.497Z,8.03
2018-05-24T12:54:52.966Z,7.53
2018-05-24T12:57:21.636Z,7.13
2018-05-24T12:59:50.085Z,7.83
2018-05-24T13:02:18.540Z,7.63
2018-05-24T13:04:46.935Z,8.10
2018-05-24T13:07:15.343Z,7.83
2018-05-24T13:09:43.761Z,7.87
2018-05-24T13:12:12.153Z,8.77
2018-05-24T13:14:40.923Z,9.03
2018-05-24T13:17:09.319Z,8.73
2018-05-24T13:19:37.664Z,7.60
2018-05-24T13:22:06.563Z,8.13
2018-05-24T13:24:34.927Z,8.07
2018-05-24T13:27:03.297Z,8.30
2018-05-24T13:29:31.920Z,8.67
2018-05-24T13:32:00.284Z,7.53
2018-05-24T13:34:28.750Z,10.50
2018-05-24T13:36:57.657Z,9.50
2018-05-24T13:39:26.032Z,8.95
2018-05-24T13:41:54.491Z,8.82
2018-05-24T13:44:23.110Z,8.07
2018-05-24T13:46:51.520Z,9.25
2018-05-24T13:49:19.928Z,8.95
2018-05-24T13:51:48.782Z,8.18
2018-05-24T13:54:17.194Z,8.35
2018-05-24T13:56:45.564Z,8.75
2018-05-24T13:59:14.308Z,7.97
2018-05-24T14:01:42.802Z,7.82
2018-05-24T14:04:11.177Z,8.07
2018-05-24T14:06:39.577Z,7.80
2018-05-24T14:09:07.992Z,7.65
2018-05-24T14:11:36.359Z,8.77
2018-05-24T14:14:05.339Z,8.52
2018-05-24T14:16:33.703Z,7.35
2018-05-24T14:19:02.129Z,7.10
2018-05-24T14:21:31.169Z,6.87
2018-05-24T14:23:59.570Z,5.50
2018-05-24T14:26:27.958Z,5.95
2018-05-24T14:28:56.733Z,6.53
2018-05-24T14:31:25.201Z,6.32
2018-05-24T14:33:53.566Z,4.50
2018-05-24T14:36:22.353Z,4.72
2018-05-24T14:38:50.718Z,5.45
2018-05-24T14:41:19.077Z,5.35
2018-05-24T14:43:47.983Z,5.22
2018-05-24T14:46:16.363Z,5.25
2018-05-24T14:48:44.746Z,4.68
2018-05-24T14:51:13.367Z,5.53
2018-05-24T14:53:41.740Z,6.03
2018-05-24T14:56:10.103Z,5.72
2018-05-24T14:58:38.527Z,6.07
2018-05-24T15:01:07.124Z,7.43
2018-05-24T15:03:35.605Z,6.55
2018-05-24T15:06:04.018Z,5.75
2018-05-24T15:08:32.399Z,6.12
2018-05-24T15:11:01.567Z,6.95
2018-05-24T15:13:41.802Z,6.97
2018-05-24T15:16:10.283Z,6.03
2018-05-24T15:18:38.915Z,6.97
2018-05-24T15:21:07.376Z,6.25
2018-05-24T15:23:35.739Z,6.80
2018-05-24T15:26:04.185Z,6.93
2018-05-24T15:28:32.576Z,6.22
2018-05-24T15:31:01.009Z,6.68
2018-05-24T15:33:29.506Z,6.35
2018-05-24T15:35:57.928Z,7.87
2018-05-24T15:38:26.431Z,6.72
2018-05-24T15:40:54.843Z,6.72
2018-05-24T15:43:23.215Z,6.43
2018-05-24T15:45:51.641Z,6.87
2018-05-24T15:48:20.075Z,6.87
2018-05-24T15:50:48.461Z,7.57
2018-05-24T15:53:16.889Z,7.18
2018-05-24T15:55:45.246Z,7.97
2018-05-24T15:58:13.647Z,7.93
2018-05-24T16:00:42.010Z,6.10
2018-05-24T16:03:10.441Z,7.25
2018-05-24T16:05:38.852Z,6.60
2018-05-24T16:08:07.292Z,7.35
2018-05-24T16:10:35.691Z,6.50
2018-05-24T16:13:04.078Z,7.07
2018-05-24T16:15:32.475Z,7.15
2018-05-24T16:18:00.838Z,7.28
2018-05-24T16:20:29.239Z,7.35
2018-05-24T16:22:57.601Z,7.05
2018-05-24T16:25:26.125Z,6.93
2018-05-24T16:27:54.513Z,6.70
2018-05-24T16:30:22.947Z,7.40
2018-05-24T16:32:51.356Z,6.87
2018-05-24T16:35:19.767Z,7.90
2018-05-24T16:37:48.187Z,7.77
2018-05-24T16:40:16.563Z,7.37
2018-05-24T16:42:44.976Z,7.17
2018-05-24T16:45:13.368Z,7.77
2018-05-24T16:47:41.778Z,7.23
2018-05-24T16:50:10.191Z,7.53
2018-05-24T16:52:38.605Z,7.33
2018-05-24T16:55:06.984Z,7.20
2018-05-24T16:57:35.352Z,7.80
2018-05-24T17:00:03.794Z,7.50
2018-05-24T17:02:32.314Z,8.03
2018-05-24T17:05:00.750Z,6.40
2018-05-24T17:07:29.114Z,7.70
2018-05-24T17:09:57.516Z,7.17
2018-05-24T17:12:25.891Z,8.07
2018-05-24T17:14:54.532Z,7.80
2018-05-24T17:17:22.932Z,7.80
2018-05-24T17:19:51.323Z,7.40
2018-05-24T17:22:19.728Z,8.20
2018-05-24T17:24:48.121Z,8.10
2018-05-24T17:27:16.538Z,8.13
2018-05-24T17:29:44.947Z,7.93
2018-05-24T17:32:13.373Z,7.93
2018-05-24T17:34:41.754Z,8.07
2018-05-24T17:37:10.251Z,9.00
2018-05-24T17:39:38.627Z,7.93
2018-05-24T17:42:06.996Z,8.23
2018-05-24T17:44:35.412Z,8.97
2018-05-24T17:47:03.781Z,8.43
2018-05-24T17:49:32.170Z,10.53
2018-05-24T17:52:00.585Z,10.47
2018-05-24T17:54:28.951Z,13.57
2018-05-24T17:56:57.386Z,15.57
2018-05-24T17:59:25.766Z,16.83
2018-05-24T18:01:54.223Z,13.30
2018-05-24T18:04:22.675Z,10.60
2018-05-24T18:06:51.095Z,12.30
2018-05-24T18:09:19.479Z,10.83
2018-05-24T18:11:47.879Z,17.90
2018-05-24T18:14:16.407Z,20.63
2018-05-24T18:16:44.841Z,21.17
2018-05-24T18:19:13.255Z,20.67
2018-05-24T18:21:41.691Z,19.43
2018-05-24T18:24:10.096Z,20.07
2018-05-24T18:26:38.459Z,25.70
2018-05-24T18:29:06.946Z,31.60
2018-05-24T18:31:35.378Z,35.17
2018-05-24T18:34:03.816Z,38.20
2018-05-24T18:36:32.249Z,21.67
2018-05-24T18:39:00.622Z,16.10
2018-05-24T18:41:29.028Z,15.83
2018-05-24T18:43:57.438Z,28.97
2018-05-24T18:46:25.827Z,32.23
2018-05-24T18:48:54.284Z,37.90
2018-05-24T18:51:22.716Z,42.97
2018-05-24T18:53:51.202Z,43.40
2018-05-24T18:56:19.640Z,29.43
2018-05-24T18:58:48.040Z,23.13
2018-05-24T19:01:16.817Z,25.07
2018-05-24T19:03:45.197Z,26.03
2018-05-24T19:06:13.559Z,25.63
2018-05-24T19:08:42.020Z,27.03
2018-05-24T19:11:10.543Z,29.67
2018-05-24T19:13:38.928Z,20.63
2018-05-24T19:16:07.363Z,16.23
2018-05-24T19:18:35.779Z,17.93
2018-05-24T19:21:04.157Z,20.67
2018-05-24T19:23:32.590Z,23.33
2018-05-24T19:26:00.967Z,24.20
2018-05-24T19:28:29.328Z,19.63
2018-05-24T19:30:57.817Z,20.23
2018-05-24T19:33:26.220Z,17.47
2018-05-24T19:35:54.762Z,18.17
2018-05-24T19:38:23.324Z,16.77
2018-05-24T19:40:51.722Z,15.27
2018-05-24T19:43:20.122Z,13.93
2018-05-24T19:45:48.534Z,18.40
2018-05-24T19:48:16.915Z,19.73
2018-05-24T19:50:45.294Z,20.07
2018-05-24T19:53:14.047Z,14.37
2018-05-24T19:55:42.490Z,15.50
2018-05-24T19:58:10.895Z,47.40
2018-05-24T20:00:39.416Z,42.13
2018-05-24T20:03:08.063Z,31.77
2018-05-24T20:05:36.451Z,19.23
2018-05-24T20:08:04.844Z,14.33
2018-05-24T20:10:33.596Z,11.10
2018-05-24T20:13:01.981Z,8.83
2018-05-24T20:15:30.371Z,8.40
2018-05-24T20:17:59.140Z,7.83
2018-05-24T20:20:27.499Z,8.50
2018-05-24T20:22:55.883Z,9.63
2018-05-24T20:25:24.487Z,9.83
2018-05-24T20:27:52.851Z,8.47
2018-05-24T20:30:21.247Z,9.23
2018-05-24T20:32:50.064Z,7.70
2018-05-24T20:37:53.504Z,8.70
2018-05-24T20:40:21.906Z,10.37
2018-05-24T20:42:50.278Z,9.87
2018-05-24T20:45:19.010Z,10.03
2018-05-24T20:47:47.559Z,10.43
2018-05-24T20:50:15.920Z,11.80
2018-05-24T20:52:44.329Z,10.30
2018-05-24T20:55:12.691Z,11.33
2018-05-24T20:57:41.051Z,11.90
2018-05-24T21:00:09.860Z,12.10
2018-05-24T21:02:38.243Z,9.77
2018-05-24T21:05:06.607Z,11.53
2018-05-24T21:07:35.435Z,11.33
2018-05-24T21:10:03.874Z,11.70
2018-05-24T21:12:32.239Z,11.07
2018-05-24T21:15:00.785Z,11.37
2018-05-24T21:17:29.194Z,11.47
2018-05-24T21:19:57.611Z,10.40
2018-05-24T21:22:26.294Z,10.50
2018-05-24T21:24:54.656Z,10.83
2018-05-24T21:27:23.038Z,11.07
2018-05-24T21:29:51.872Z,12.00
2018-05-24T21:32:20.248Z,11.10
2018-05-24T21:34:48.849Z,11.07
2018-05-24T21:37:18.052Z,13.27
2018-05-24T21:39:46.457Z,12.87
2018-05-24T21:42:14.863Z,12.03
2018-05-24T21:44:43.682Z,11.73
2018-05-24T21:47:12.055Z,9.90
2018-05-24T21:49:40.425Z,11.53
2018-05-24T21:52:08.834Z,12.47
2018-05-24T21:54:37.205Z,11.83
2018-05-24T21:57:05.571Z,12.23
2018-05-24T21:59:34.270Z,12.73
2018-05-24T22:02:02.706Z,10.83
2018-05-24T22:04:31.039Z,12.33
2018-05-24T22:06:59.695Z,12.40
2018-05-24T22:09:28.059Z,11.80
2018-05-24T22:11:56.498Z,10.47
2018-05-24T22:14:25.242Z,11.17
2018-05-24T22:16:53.643Z,10.77
2018-05-24T22:19:22.023Z,10.70
2018-05-24T22:21:50.619Z,11.23
2018-05-24T22:24:19.014Z,10.60
2018-05-24T22:26:47.392Z,10.87
2018-05-24T22:29:16.053Z,10.30
2018-05-24T22:31:44.440Z,11.43
2018-05-24T22:34:12.800Z,9.60
2018-05-24T22:36:41.404Z,10.30
2018-05-24T22:39:09.773Z,9.10
2018-05-24T22:41:38.137Z,8.60
2018-05-24T22:44:06.548Z,10.13
2018-05-24T22:46:34.982Z,9.37
2018-05-24T22:49:03.357Z,9.80
2018-05-24T22:51:32.087Z,10.77
2018-05-24T22:54:00.458Z,9.67
2018-05-24T22:56:28.894Z,9.97
2018-05-24T22:58:57.640Z,10.77
2018-05-24T23:01:26.203Z,11.23
2018-05-24T23:03:54.606Z,10.47
2018-05-24T23:06:23.310Z,10.77
2018-05-24T23:08:51.705Z,11.60
2018-05-24T23:11:20.077Z,10.43
2018-05-24T23:13:48.839Z,12.43
2018-05-24T23:16:17.213Z,12.87
2018-05-24T23:18:45.655Z,12.07
2018-05-24T23:21:14.505Z,14.30
2018-05-24T23:23:43.075Z,13.53
2018-05-24T23:26:11.494Z,13.53
2018-05-24T23:28:40.251Z,13.47
2018-05-24T23:31:08.631Z,13.90
2018-05-24T23:33:37.009Z,14.20
2018-05-24T23:36:05.802Z,14.50
2018-05-24T23:38:34.167Z,15.60
2018-05-24T23:41:02.553Z,13.73
2018-05-24T23:43:31.242Z,14.67
2018-05-24T23:45:59.656Z,14.83
2018-05-24T23:48:28.036Z,14.03
2018-05-24T23:50:56.801Z,13.77
2018-05-24T23:53:25.189Z,13.10
2018-05-24T23:55:53.571Z,13.33
2018-05-24T23:58:22.251Z,12.80
